Terminal Aerodrome Forecast
Issued by NWS Wakefield, VA

Home | Current Version | Previous Version | Text Only | Print | Product List | Glossary On
Versions: 1 2 3 4 5 6 7 8 9 10 11 12 13 14 15 16 17 18 19 20 21 22 23 24
000
FTUS41 KAKQ 181241 AAA
TAFSBY
TAF AMD
KSBY 181241Z 1813/1912 01007KT P6SM BKN250
      TEMPO 1813/1814 5SM BR
     FM181500 34007KT P6SM SCT250
     FM182300 22004KT P6SM SKC
     FM190500 04006KT P6SM SKC=

USA.gov is the U.S. government's official web portal to all federal, state and local government web resources and services.